Time;durP1;ratioP1;P1;durP2;ratioP2;P2;SDS_P1;SDS_P2;PMS_P1;PMS_P2;Temp;Humidity;BMP_temperature;BMP_pressure;BME280_temperature;BME280_humidity;BME280_pressure;Samples;Min_cycle;Max_cycle;Signal;HPM_P1;HPM_P2
2023/01/19 00:00:59;;;;;;;26.83;12.80;;;-1.00;86.00;;;;;;5034396;28;20235;-77
2023/01/19 00:03:25;;;;;;;19.90;11.70;;;-1.00;86.30;;;;;;5032530;28;20862;-78
2023/01/19 00:05:51;;;;;;;21.60;11.43;;;-1.10;86.50;;;;;;5034816;28;20188;-76
2023/01/19 00:08:17;;;;;;;22.38;12.52;;;-1.00;86.80;;;;;;5039856;28;20208;-77
2023/01/19 00:10:45;;;;;;;22.75;11.65;;;-1.10;86.60;;;;;;5031910;28;20255;-76
2023/01/19 00:13:12;;;;;;;23.60;12.50;;;-1.10;86.80;;;;;;5037553;28;20323;-77
2023/01/19 00:15:38;;;;;;;21.38;12.15;;;-1.10;86.80;;;;;;5036412;28;20204;-77
2023/01/19 00:18:03;;;;;;;22.52;12.30;;;-1.10;87.10;;;;;;5029412;28;20248;-76
2023/01/19 00:20:31;;;;;;;24.50;12.33;;;-1.10;86.80;;;;;;5029918;28;20227;-76
2023/01/19 00:22:57;;;;;;;20.88;11.75;;;-1.10;86.80;;;;;;5033993;28;20208;-77
2023/01/19 00:25:22;;;;;;;25.53;12.50;;;-1.10;86.90;;;;;;5030960;28;20216;-78
2023/01/19 00:27:49;;;;;;;27.00;11.57;;;-1.10;86.90;;;;;;5027049;28;20213;-78
2023/01/19 00:30:15;;;;;;;28.73;13.02;;;-1.10;87.10;;;;;;5038259;28;20181;-76
2023/01/19 00:32:41;;;;;;;25.92;12.88;;;-1.10;86.90;;;;;;5040489;28;20201;-76
2023/01/19 00:35:07;;;;;;;24.63;13.00;;;-1.10;87.10;;;;;;5039898;28;20192;-78
2023/01/19 00:37:32;;;;;;;21.40;11.47;;;-1.10;87.10;;;;;;5032886;28;20225;-77
2023/01/19 00:39:58;;;;;;;24.43;12.60;;;-1.20;87.10;;;;;;5028776;28;20186;-76
2023/01/19 00:42:38;;;;;;;22.93;12.37;;;-1.20;87.10;;;;;;5033243;28;20188;-76
2023/01/19 00:45:06;;;;;;;30.45;12.52;;;-1.20;87.30;;;;;;5034030;28;20541;-78
2023/01/19 00:47:32;;;;;;;28.50;12.80;;;-1.20;87.30;;;;;;5036025;28;20215;-77
2023/01/19 00:49:57;;;;;;;20.53;12.00;;;-1.20;87.10;;;;;;5037419;28;20271;-78
2023/01/19 00:52:23;;;;;;;20.47;12.00;;;-1.20;87.30;;;;;;5032926;28;20442;-78
2023/01/19 00:54:49;;;;;;;27.50;11.60;;;-1.20;87.30;;;;;;5034499;28;20187;-78
2023/01/19 00:57:15;;;;;;;23.17;12.23;;;-1.20;87.30;;;;;;5029407;28;20216;-78
2023/01/19 00:59:40;;;;;;;23.77;11.88;;;-1.20;87.10;;;;;;5032705;28;20522;-79
2023/01/19 01:02:06;;;;;;;29.13;12.30;;;-1.20;87.10;;;;;;5037472;28;20192;-77
2023/01/19 01:04:32;;;;;;;23.33;11.80;;;-1.20;87.10;;;;;;5031412;28;20216;-78
2023/01/19 01:06:57;;;;;;;20.27;11.00;;;-1.20;87.10;;;;;;5032898;28;20192;-77
2023/01/19 01:09:23;;;;;;;22.00;11.80;;;-1.20;87.10;;;;;;5033836;28;20808;-77
2023/01/19 01:11:49;;;;;;;22.73;11.73;;;-1.20;87.10;;;;;;5034235;28;20200;-77
2023/01/19 01:14:14;;;;;;;23.73;12.30;;;-1.20;87.00;;;;;;5034079;28;20215;-77
2023/01/19 01:16:40;;;;;;;20.13;10.50;;;-1.20;87.00;;;;;;5031888;28;20289;-78
2023/01/19 01:19:06;;;;;;;28.37;12.53;;;-1.20;87.00;;;;;;5031036;28;20649;-76
2023/01/19 01:21:33;;;;;;;22.25;11.77;;;-1.30;87.00;;;;;;5038837;28;20185;-78
2023/01/19 01:23:59;;;;;;;22.92;11.55;;;-1.30;87.00;;;;;;5035299;28;20178;-77
2023/01/19 01:26:25;;;;;;;20.45;10.70;;;-1.30;87.10;;;;;;5033832;28;20209;-77
2023/01/19 01:28:50;;;;;;;21.10;10.60;;;-1.20;87.00;;;;;;5035545;28;20201;-77
2023/01/19 01:31:16;;;;;;;22.63;11.77;;;-1.20;86.90;;;;;;5049892;28;20227;-76
2023/01/19 01:33:41;;;;;;;19.80;12.07;;;-1.10;86.80;;;;;;5051159;28;20284;-77
2023/01/19 01:36:09;;;;;;;23.53;11.23;;;-1.10;86.30;;;;;;5044544;28;20628;-77
2023/01/19 01:38:34;;;;;;;24.75;12.35;;;-1.10;86.00;;;;;;5044839;28;20232;-77
2023/01/19 01:41:00;;;;;;;24.83;11.30;;;-1.10;85.90;;;;;;5038446;28;20185;-78
2023/01/19 01:43:48;;;;;;;23.30;11.47;;;-1.10;86.00;;;;;;5042942;28;20177;-77
2023/01/19 01:46:16;;;;;;;21.33;11.85;;;-1.10;85.90;;;;;;5035176;28;20867;-77
2023/01/19 01:49:06;;;;;;;21.55;10.73;;;-1.20;85.90;;;;;;5032511;28;20216;-76
2023/01/19 01:51:41;;;;;;;19.40;11.23;;;-1.20;85.90;;;;;;5030352;28;20561;-75
2023/01/19 01:54:24;;;;;;;18.95;10.35;;;-1.20;86.00;;;;;;5033166;28;20189;-77
2023/01/19 01:56:54;;;;;;;22.63;11.40;;;-1.20;86.20;;;;;;5036265;28;20660;-77
2023/01/19 01:59:37;;;;;;;23.23;11.30;;;-1.20;86.20;;;;;;5038991;28;20254;-77
2023/01/19 02:05:15;;;;;;;20.27;11.52;;;-1.20;86.00;;;;;;5044962;28;20204;-77
2023/01/19 02:13:29;;;;;;;23.05;10.05;;;-1.20;85.50;;;;;;5030827;28;20192;-78
2023/01/19 02:15:58;;;;;;;19.33;11.00;;;-1.30;85.30;;;;;;5030209;28;20259;-78
2023/01/19 02:18:27;;;;;;;21.52;10.70;;;-1.30;85.60;;;;;;5027503;28;20705;-77
2023/01/19 02:21:07;;;;;;;24.95;10.25;;;-1.20;85.70;;;;;;5028923;28;20307;-77
2023/01/19 02:23:36;;;;;;;22.55;9.70;;;-1.20;85.60;;;;;;5024021;28;20184;-78
2023/01/19 02:26:03;;;;;;;17.23;10.00;;;-1.20;85.50;;;;;;5033394;28;20177;-77
2023/01/19 02:28:30;;;;;;;23.73;10.82;;;-1.20;85.60;;;;;;5023573;28;20588;-77
2023/01/19 02:30:55;;;;;;;15.73;9.85;;;-1.20;85.60;;;;;;5026557;28;20264;-76
2023/01/19 02:33:21;;;;;;;16.63;9.80;;;-1.20;85.50;;;;;;5028030;28;20267;-77
2023/01/19 02:35:49;;;;;;;22.63;9.97;;;-1.20;85.50;;;;;;5026644;28;20193;-78
2023/01/19 02:38:19;;;;;;;19.48;10.60;;;-1.30;85.60;;;;;;5023695;28;20766;-76
2023/01/19 02:40:45;;;;;;;17.55;9.88;;;-1.30;85.70;;;;;;5025622;28;20190;-78
2023/01/19 02:43:11;;;;;;;22.67;10.50;;;-1.20;86.00;;;;;;5033456;28;20557;-78
2023/01/19 02:45:38;;;;;;;16.40;9.53;;;-1.20;85.70;;;;;;5033194;28;20268;-78
2023/01/19 02:48:04;;;;;;;18.92;9.55;;;-1.20;85.60;;;;;;5030728;28;20564;-78
2023/01/19 02:50:48;;;;;;;21.88;9.93;;;-1.20;85.50;;;;;;5032299;28;20626;-77
2023/01/19 02:53:22;;;;;;;19.92;9.88;;;-1.20;85.50;;;;;;5031006;28;20208;-78
2023/01/19 02:56:06;;;;;;;19.38;9.55;;;-1.20;85.50;;;;;;5027547;28;20207;-78
2023/01/19 02:58:31;;;;;;;21.58;10.07;;;-1.20;85.30;;;;;;5018761;28;20219;-74
2023/01/19 03:01:07;;;;;;;18.20;9.47;;;-1.20;85.50;;;;;;5026719;28;20263;-77
2023/01/19 03:03:50;;;;;;;16.98;9.13;;;-1.20;85.30;;;;;;5025094;28;20235;-76
2023/01/19 03:06:35;;;;;;;19.60;9.07;;;-1.20;85.00;;;;;;5027714;28;20212;-75
2023/01/19 03:09:29;;;;;;;19.90;9.70;;;-1.20;85.00;;;;;;5020710;28;20679;-75
2023/01/19 03:12:12;;;;;;;18.80;9.30;;;-1.20;84.90;;;;;;4989171;28;20265;-76
2023/01/19 03:14:43;;;;;;;19.52;9.88;;;-1.20;84.90;;;;;;5022973;28;20181;-76
2023/01/19 03:17:10;;;;;;;16.52;8.93;;;-1.20;84.70;;;;;;5031620;28;20212;-76
2023/01/19 03:19:42;;;;;;;16.27;9.10;;;-1.20;84.60;;;;;;5026624;28;20177;-75
2023/01/19 03:22:12;;;;;;;18.27;9.15;;;-1.20;84.70;;;;;;5028918;28;20684;-76
2023/01/19 03:24:42;;;;;;;16.63;8.88;;;-1.20;84.70;;;;;;5026935;28;20279;-76
2023/01/19 03:27:39;;;;;;;18.15;8.52;;;-1.30;84.70;;;;;;5025223;28;20182;-76
2023/01/19 03:30:11;;;;;;;17.52;8.93;;;-1.20;84.90;;;;;;5004206;28;20246;-76
2023/01/19 03:32:50;;;;;;;20.88;10.13;;;-1.30;84.90;;;;;;5011617;28;20268;-75
2023/01/19 03:35:18;;;;;;;17.15;9.02;;;-1.30;84.90;;;;;;4986754;28;20190;-75
2023/01/19 03:37:47;;;;;;;18.98;8.95;;;-1.20;84.90;;;;;;5002558;28;20221;-74
2023/01/19 03:40:13;;;;;;;18.15;8.73;;;-1.20;84.90;;;;;;5007858;28;20189;-76
2023/01/19 03:42:41;;;;;;;17.77;8.73;;;-1.20;84.70;;;;;;5006340;28;20228;-76
2023/01/19 03:45:07;;;;;;;15.38;8.93;;;-1.20;84.70;;;;;;5004702;28;20425;-76
2023/01/19 03:47:34;;;;;;;16.77;8.88;;;-1.20;84.60;;;;;;5011005;28;20224;-76
2023/01/19 03:50:04;;;;;;;17.63;8.38;;;-1.20;84.60;;;;;;5010986;28;20270;-75
2023/01/19 03:52:32;;;;;;;17.00;9.32;;;-1.10;84.40;;;;;;4985787;28;20310;-76
2023/01/19 03:55:04;;;;;;;14.20;8.00;;;-1.20;84.10;;;;;;5002612;28;20282;-74
2023/01/19 03:57:30;;;;;;;19.95;9.10;;;-1.20;84.30;;;;;;4999954;28;20225;-75
2023/01/19 03:59:55;;;;;;;15.00;7.65;;;-1.20;84.30;;;;;;5015936;28;20186;-77
2023/01/19 04:02:22;;;;;;;14.93;9.20;;;-1.20;84.10;;;;;;5009066;28;20572;-76
2023/01/19 04:04:48;;;;;;;15.10;7.13;;;-1.20;84.00;;;;;;5014902;28;20356;-75
2023/01/19 04:07:13;;;;;;;18.13;9.40;;;-1.20;83.70;;;;;;5025280;28;20197;-76
2023/01/19 04:09:39;;;;;;;17.03;9.33;;;-1.20;83.60;;;;;;5030663;28;20209;-77
2023/01/19 04:12:05;;;;;;;19.90;8.90;;;-1.20;83.70;;;;;;5032385;28;20185;-77
2023/01/19 04:14:31;;;;;;;17.33;8.50;;;-1.30;83.80;;;;;;5027128;28;20408;-76
2023/01/19 04:16:56;;;;;;;17.80;8.87;;;-1.30;84.10;;;;;;5035898;28;20602;-77
2023/01/19 04:19:22;;;;;;;17.93;10.23;;;-1.40;84.30;;;;;;5026165;28;20989;-76
2023/01/19 04:21:49;;;;;;;19.03;9.07;;;-1.40;84.40;;;;;;5032971;28;20185;-77
2023/01/19 04:24:15;;;;;;;17.88;9.38;;;-1.40;84.70;;;;;;5036289;28;20443;-76
2023/01/19 04:26:41;;;;;;;19.57;10.47;;;-1.40;84.90;;;;;;5036105;28;20178;-77
2023/01/19 04:29:06;;;;;;;25.30;10.83;;;-1.40;84.90;;;;;;5029234;28;20459;-76
2023/01/19 04:31:34;;;;;;;22.67;10.50;;;-1.40;84.90;;;;;;5031878;28;20658;-76
2023/01/19 04:34:00;;;;;;;19.52;10.13;;;-1.40;84.90;;;;;;5031513;28;20247;-75
2023/01/19 04:36:27;;;;;;;19.43;10.30;;;-1.40;84.90;;;;;;5033090;28;20660;-78
2023/01/19 04:38:52;;;;;;;20.65;10.27;;;-1.50;85.00;;;;;;5030833;28;20825;-76
2023/01/19 04:41:18;;;;;;;24.80;11.30;;;-1.50;85.30;;;;;;5028241;28;20184;-77
2023/01/19 04:43:44;;;;;;;23.37;11.60;;;-1.50;85.30;;;;;;5030470;28;20185;-76
2023/01/19 04:46:09;;;;;;;22.87;11.47;;;-1.60;85.50;;;;;;5028127;28;20182;-76
2023/01/19 04:48:35;;;;;;;25.93;11.60;;;-1.50;85.90;;;;;;5032344;28;20201;-75
2023/01/19 04:51:00;;;;;;;23.33;11.30;;;-1.60;85.70;;;;;;5033313;28;20185;-77
2023/01/19 04:53:26;;;;;;;21.03;10.60;;;-1.50;85.90;;;;;;5032747;28;20181;-77
2023/01/19 04:55:53;;;;;;;22.97;10.93;;;-1.50;85.70;;;;;;5029035;28;20555;-77
2023/01/19 04:58:19;;;;;;;20.45;10.55;;;-1.50;85.70;;;;;;5030880;28;20216;-78
2023/01/19 05:00:45;;;;;;;24.23;10.43;;;-1.50;85.70;;;;;;5023946;28;20669;-76
2023/01/19 05:03:10;;;;;;;22.80;11.47;;;-1.50;85.70;;;;;;5026317;28;20254;-76
2023/01/19 05:05:37;;;;;;;22.60;11.50;;;-1.60;85.70;;;;;;5027568;28;20253;-76
2023/01/19 05:08:02;;;;;;;23.95;11.80;;;-1.50;85.70;;;;;;5034208;28;20200;-77
2023/01/19 05:10:28;;;;;;;24.47;11.97;;;-1.50;85.70;;;;;;5046412;28;20181;-77
2023/01/19 05:12:54;;;;;;;21.00;12.10;;;-1.60;85.70;;;;;;5050467;28;20412;-77
2023/01/19 05:15:20;;;;;;;21.57;12.03;;;-1.50;85.90;;;;;;5045257;28;20189;-76
2023/01/19 05:17:46;;;;;;;27.77;12.10;;;-1.50;85.70;;;;;;5043221;28;20303;-78
2023/01/19 05:20:12;;;;;;;22.42;11.95;;;-1.50;85.70;;;;;;5039526;28;20425;-76
2023/01/19 05:22:38;;;;;;;23.13;12.10;;;-1.50;85.70;;;;;;5038347;28;20268;-76
2023/01/19 05:25:07;;;;;;;22.67;11.87;;;-1.40;85.60;;;;;;5038838;28;20213;-75
2023/01/19 05:27:33;;;;;;;19.60;10.13;;;-1.40;85.60;;;;;;5035345;28;20197;-77
2023/01/19 05:29:58;;;;;;;22.43;10.00;;;-1.40;85.50;;;;;;5030136;28;20181;-75
2023/01/19 05:32:24;;;;;;;27.20;11.47;;;-1.40;85.30;;;;;;5027990;28;20471;-75
2023/01/19 05:34:49;;;;;;;20.30;9.97;;;-1.40;85.20;;;;;;5022215;28;20577;-74
2023/01/19 05:37:15;;;;;;;19.90;10.90;;;-1.40;85.30;;;;;;5021853;28;20602;-75
2023/01/19 05:39:41;;;;;;;21.03;10.27;;;-1.40;85.20;;;;;;5020045;28;20186;-74
2023/01/19 05:42:06;;;;;;;22.30;10.70;;;-1.40;85.00;;;;;;5016814;28;20182;-74
2023/01/19 05:44:32;;;;;;;20.47;10.43;;;-1.50;85.00;;;;;;5030866;28;20185;-74
2023/01/19 05:46:57;;;;;;;19.00;10.27;;;-1.40;85.20;;;;;;5029347;28;20272;-75
2023/01/19 05:49:23;;;;;;;19.20;9.47;;;-1.40;84.90;;;;;;5025551;28;20224;-73
2023/01/19 05:51:49;;;;;;;21.60;10.00;;;-1.30;84.70;;;;;;5029056;28;20196;-74
2023/01/19 05:54:14;;;;;;;20.00;10.33;;;-1.30;84.70;;;;;;5029636;28;20207;-74
2023/01/19 05:56:41;;;;;;;22.17;10.80;;;-1.30;84.60;;;;;;5029609;28;20189;-75
2023/01/19 05:59:07;;;;;;;27.80;10.82;;;-1.40;84.70;;;;;;5026677;28;20247;-73
2023/01/19 06:01:34;;;;;;;24.17;11.27;;;-1.40;84.90;;;;;;5030472;28;20276;-74
2023/01/19 06:03:59;;;;;;;20.65;10.52;;;-1.40;85.00;;;;;;5029681;28;20179;-73
2023/01/19 06:06:25;;;;;;;19.00;9.60;;;-1.50;85.20;;;;;;5027674;28;20264;-75
2023/01/19 06:08:51;;;;;;;21.40;10.60;;;-1.50;85.20;;;;;;5028288;28;20212;-76
2023/01/19 06:11:16;;;;;;;27.90;11.03;;;-1.50;85.30;;;;;;5026794;28;20202;-77
2023/01/19 06:13:42;;;;;;;22.37;11.40;;;-1.60;85.30;;;;;;5030891;28;20185;-76
2023/01/19 06:16:08;;;;;;;24.40;11.00;;;-1.50;85.30;;;;;;5021323;28;20182;-75
2023/01/19 06:18:34;;;;;;;24.70;11.27;;;-1.50;85.30;;;;;;5023703;28;20292;-74
2023/01/19 06:21:04;;;;;;;21.73;10.80;;;-1.50;85.20;;;;;;5017443;28;20318;-75
2023/01/19 06:23:31;;;;;;;22.88;10.25;;;-1.50;85.20;;;;;;5023733;28;20186;-76
2023/01/19 06:25:57;;;;;;;19.40;10.45;;;-1.50;85.20;;;;;;5025681;28;20308;-75
2023/01/19 06:28:23;;;;;;;21.17;10.13;;;-1.60;85.20;;;;;;5024133;28;20300;-76
2023/01/19 06:30:49;;;;;;;21.53;9.93;;;-1.50;85.30;;;;;;5021948;28;20189;-77
2023/01/19 06:33:15;;;;;;;20.20;10.45;;;-1.50;85.30;;;;;;5030934;28;20238;-76
2023/01/19 06:35:46;;;;;;;22.95;10.20;;;-1.50;85.30;;;;;;5031155;28;20181;-77
2023/01/19 06:38:13;;;;;;;22.00;9.68;;;-1.50;85.20;;;;;;5023825;28;20209;-78
2023/01/19 06:40:39;;;;;;;17.33;9.40;;;-1.40;85.20;;;;;;5032683;28;20601;-78
2023/01/19 06:43:06;;;;;;;17.08;9.55;;;-1.50;85.20;;;;;;5032974;28;20185;-77
2023/01/19 06:45:32;;;;;;;20.08;9.75;;;-1.50;85.20;;;;;;5033658;28;20181;-78
2023/01/19 06:47:58;;;;;;;23.50;11.45;;;-1.50;85.20;;;;;;5027009;28;20217;-77
2023/01/19 06:50:23;;;;;;;23.50;10.95;;;-1.50;85.20;;;;;;5032404;28;20649;-78
2023/01/19 06:52:50;;;;;;;23.77;8.87;;;-1.50;85.00;;;;;;5033105;28;20181;-77
2023/01/19 06:55:16;;;;;;;22.30;11.25;;;-1.50;85.00;;;;;;5026303;28;20177;-77
2023/01/19 06:57:43;;;;;;;21.97;10.27;;;-1.50;84.90;;;;;;5046986;28;20245;-77
2023/01/19 07:00:10;;;;;;;23.75;10.43;;;-1.50;84.90;;;;;;5049404;28;20173;-76
2023/01/19 07:02:45;;;;;;;18.10;9.48;;;-1.50;84.90;;;;;;5052666;28;20213;-77
2023/01/19 07:05:13;;;;;;;23.55;11.43;;;-1.50;85.00;;;;;;5047846;28;20197;-77
2023/01/19 07:07:39;;;;;;;15.45;8.52;;;-1.40;84.90;;;;;;5041765;28;20240;-77
2023/01/19 07:10:10;;;;;;;17.75;8.50;;;-1.40;84.40;;;;;;5050002;28;20188;-78
2023/01/19 07:12:36;;;;;;;18.90;9.13;;;-1.40;84.30;;;;;;5042354;28;20181;-76
2023/01/19 07:15:02;;;;;;;14.67;8.17;;;-1.40;84.30;;;;;;5045107;28;20193;-76
2023/01/19 07:17:27;;;;;;;14.73;8.70;;;-1.40;84.10;;;;;;5034758;28;20420;-78
2023/01/19 07:19:53;;;;;;;20.73;9.13;;;-1.30;84.30;;;;;;5029464;28;20186;-76
2023/01/19 07:22:18;;;;;;;17.43;9.30;;;-1.30;84.10;;;;;;5032459;28;20551;-77
2023/01/19 07:24:44;;;;;;;20.60;8.30;;;-1.30;84.10;;;;;;5028907;28;20201;-77
2023/01/19 07:27:12;;;;;;;21.07;7.77;;;-1.20;83.80;;;;;;5028612;28;20207;-76
2023/01/19 07:29:38;;;;;;;17.20;7.82;;;-1.20;83.60;;;;;;5027624;28;20730;-77
2023/01/19 07:32:05;;;;;;;20.27;8.20;;;-1.10;83.30;;;;;;5032190;28;20181;-77
2023/01/19 07:34:30;;;;;;;16.30;8.70;;;-1.10;83.10;;;;;;5030967;28;20432;-77
2023/01/19 07:36:56;;;;;;;15.87;8.70;;;-1.10;83.00;;;;;;5029822;28;20192;-76
2023/01/19 07:39:22;;;;;;;18.60;8.27;;;-1.10;83.00;;;;;;5031111;28;20637;-77
2023/01/19 07:41:47;;;;;;;14.37;7.80;;;-1.10;82.80;;;;;;5031175;28;20588;-77
2023/01/19 07:44:13;;;;;;;13.63;7.43;;;-1.10;82.80;;;;;;5037922;28;20204;-76
2023/01/19 07:46:39;;;;;;;11.47;6.70;;;-1.00;82.70;;;;;;5034268;28;20555;-77
2023/01/19 07:49:04;;;;;;;20.73;8.47;;;-1.00;82.10;;;;;;5030901;28;20228;-77
2023/01/19 07:51:30;;;;;;;12.37;6.73;;;-1.00;81.90;;;;;;5028366;28;20256;-77
2023/01/19 07:53:56;;;;;;;15.17;7.87;;;-1.00;81.70;;;;;;5028772;28;20209;-77
2023/01/19 07:56:23;;;;;;;16.00;7.43;;;-0.90;81.50;;;;;;5026528;28;20186;-77
2023/01/19 07:58:51;;;;;;;11.73;6.40;;;-0.90;81.10;;;;;;5029662;28;20236;-76
2023/01/19 08:01:17;;;;;;;9.90;6.60;;;-0.90;80.90;;;;;;5030019;28;20182;-77
2023/01/19 08:03:42;;;;;;;12.80;7.43;;;-0.80;80.80;;;;;;5040886;28;20208;-78
2023/01/19 08:06:23;;;;;;;16.57;7.50;;;-0.80;80.50;;;;;;5033355;28;20652;-77
2023/01/19 08:08:49;;;;;;;9.70;6.07;;;-0.90;80.20;;;;;;5019652;28;20204;-77
2023/01/19 08:11:15;;;;;;;13.20;6.67;;;-0.90;80.30;;;;;;5033773;28;20191;-77
2023/01/19 08:13:41;;;;;;;11.63;6.85;;;-1.00;80.30;;;;;;5035693;28;20470;-78
2023/01/19 08:16:06;;;;;;;17.13;7.10;;;-1.00;80.50;;;;;;5035493;28;20181;-77
2023/01/19 08:18:32;;;;;;;16.00;8.10;;;-1.00;80.50;;;;;;5031443;28;20576;-77
2023/01/19 08:20:58;;;;;;;15.27;8.03;;;-1.00;80.50;;;;;;5036919;28;20678;-77
2023/01/19 08:23:24;;;;;;;12.07;6.95;;;-1.00;80.60;;;;;;5034879;28;20190;-76
2023/01/19 08:25:50;;;;;;;15.47;8.10;;;-1.00;80.50;;;;;;5032488;28;20189;-77
2023/01/19 08:28:16;;;;;;;16.73;8.07;;;-1.00;80.80;;;;;;5031666;28;20591;-77
2023/01/19 08:30:43;;;;;;;15.82;7.13;;;-0.80;80.90;;;;;;5034599;28;20192;-77
2023/01/19 08:33:12;;;;;;;18.73;8.02;;;-0.80;80.80;;;;;;5034462;28;20568;-77
2023/01/19 08:35:42;;;;;;;14.00;7.22;;;-0.80;80.80;;;;;;5031924;28;20308;-77
2023/01/19 08:38:09;;;;;;;12.93;7.47;;;-0.70;80.80;;;;;;5028864;28;20711;-78
2023/01/19 08:40:36;;;;;;;13.07;7.47;;;-0.70;80.60;;;;;;5028736;28;20189;-77
2023/01/19 08:43:06;;;;;;;14.60;7.20;;;-0.70;80.50;;;;;;5035362;28;20200;-77
2023/01/19 08:45:36;;;;;;;13.40;7.18;;;-0.80;80.50;;;;;;5032604;28;20227;-77
2023/01/19 08:48:03;;;;;;;13.48;6.43;;;-0.80;80.60;;;;;;5031664;28;20232;-76
2023/01/19 08:50:30;;;;;;;16.95;7.07;;;-0.70;80.50;;;;;;5031340;28;20185;-77
2023/01/19 08:52:57;;;;;;;16.02;8.00;;;-0.80;80.50;;;;;;5034366;28;20661;-77
2023/01/19 08:55:24;;;;;;;12.75;7.15;;;-0.80;80.50;;;;;;5032191;28;20219;-77
2023/01/19 08:57:55;;;;;;;16.80;7.20;;;-0.80;80.60;;;;;;5033706;28;20312;-77
2023/01/19 09:00:21;;;;;;;12.23;7.10;;;-0.70;80.60;;;;;;5033779;28;20204;-77
2023/01/19 09:02:47;;;;;;;14.13;6.60;;;-0.70;80.80;;;;;;5030885;28;20592;-78
2023/01/19 09:05:13;;;;;;;16.03;7.13;;;-0.60;80.60;;;;;;5030767;28;21004;-77
2023/01/19 09:07:38;;;;;;;11.00;7.00;;;-0.60;80.50;;;;;;5029546;28;20985;-76
2023/01/19 09:10:05;;;;;;;18.30;9.30;;;-0.50;80.20;;;;;;5029726;28;20181;-77
2023/01/19 09:12:31;;;;;;;11.20;6.75;;;-0.40;80.00;;;;;;5028109;28;20187;-77
2023/01/19 09:14:56;;;;;;;17.57;7.93;;;-0.20;80.00;;;;;;5026442;28;20398;-77
2023/01/19 09:17:22;;;;;;;10.77;6.97;;;-0.10;79.70;;;;;;5028610;28;20482;-77
2023/01/19 09:19:47;;;;;;;15.70;6.93;;;-0.10;79.20;;;;;;5031337;28;20269;-76
2023/01/19 09:22:13;;;;;;;12.90;7.43;;;0.00;79.20;;;;;;5028806;28;20189;-76
2023/01/19 09:24:38;;;;;;;20.93;7.90;;;0.20;78.90;;;;;;5033120;28;20264;-78
2023/01/19 09:27:04;;;;;;;12.13;6.80;;;0.40;78.70;;;;;;5029036;28;20181;-77
2023/01/19 09:29:30;;;;;;;12.90;6.77;;;0.50;78.10;;;;;;5026245;28;20225;-77
2023/01/19 09:31:56;;;;;;;15.37;6.90;;;0.60;77.80;;;;;;5026625;28;20173;-77
2023/01/19 09:34:24;;;;;;;12.80;6.72;;;0.70;77.40;;;;;;5030493;28;20209;-76
2023/01/19 09:36:50;;;;;;;13.57;6.38;;;0.70;77.40;;;;;;5034571;28;20180;-77
2023/01/19 09:39:16;;;;;;;12.95;6.13;;;0.70;77.10;;;;;;5027417;28;20213;-76
2023/01/19 09:41:56;;;;;;;11.40;6.10;;;0.70;77.10;;;;;;5028174;28;20251;-77
2023/01/19 09:44:31;;;;;;;11.80;6.10;;;0.80;77.30;;;;;;5022786;28;20276;-77
2023/01/19 09:46:56;;;;;;;11.63;6.40;;;0.80;77.10;;;;;;5028193;28;20188;-78
2023/01/19 09:49:39;;;;;;;12.80;6.87;;;0.90;77.10;;;;;;5016685;28;20223;-77
2023/01/19 09:52:11;;;;;;;14.07;6.20;;;0.90;76.80;;;;;;5031046;28;20184;-78
2023/01/19 09:54:51;;;;;;;12.52;6.25;;;1.00;76.50;;;;;;5032113;28;20532;-77
2023/01/19 09:57:17;;;;;;;10.48;5.70;;;1.00;76.40;;;;;;5024864;28;20281;-77
2023/01/19 09:59:46;;;;;;;12.30;6.40;;;1.00;76.70;;;;;;5027100;28;20305;-77
2023/01/19 10:02:34;;;;;;;11.48;6.47;;;1.00;76.70;;;;;;5032036;28;20439;-77
2023/01/19 10:05:12;;;;;;;13.10;6.78;;;1.00;76.80;;;;;;5026979;28;20201;-78
2023/01/19 10:08:07;;;;;;;11.40;6.20;;;1.10;76.70;;;;;;5024414;28;20300;-77
2023/01/19 10:10:36;;;;;;;12.15;6.43;;;1.20;76.20;;;;;;5025541;28;20652;-78
2023/01/19 10:13:20;;;;;;;11.90;6.45;;;1.20;76.10;;;;;;5030198;28;20178;-78
2023/01/19 10:15:53;;;;;;;12.65;6.95;;;1.20;76.10;;;;;;5041046;28;20157;-78
2023/01/19 10:18:19;;;;;;;13.50;6.82;;;1.20;76.50;;;;;;5036051;28;20217;-78
2023/01/19 10:21:01;;;;;;;9.70;6.10;;;1.30;76.40;;;;;;5030004;28;20254;-77
2023/01/19 10:24:01;;;;;;;10.65;6.00;;;1.40;76.50;;;;;;5029170;28;20197;-79
2023/01/19 10:26:39;;;;;;;10.23;5.35;;;1.40;75.80;;;;;;5021067;28;20228;-79
2023/01/19 10:29:11;;;;;;;11.77;6.10;;;1.50;75.70;;;;;;5020809;28;20715;-79
2023/01/19 10:31:38;;;;;;;12.77;6.15;;;1.50;75.20;;;;;;5020819;28;20280;-77
2023/01/19 10:34:04;;;;;;;14.52;7.15;;;1.50;75.50;;;;;;5029496;28;20188;-79
2023/01/19 10:36:38;;;;;;;13.10;6.87;;;1.60;75.10;;;;;;5027413;28;20343;-77
2023/01/19 10:39:04;;;;;;;11.55;6.38;;;1.60;74.90;;;;;;5024621;28;20573;-78
2023/01/19 10:41:50;;;;;;;12.70;6.90;;;1.60;75.10;;;;;;5020609;28;20209;-78
2023/01/19 10:44:35;;;;;;;13.65;6.35;;;1.50;74.80;;;;;;5025804;28;20185;-77
2023/01/19 10:47:01;;;;;;;13.68;6.47;;;1.50;75.20;;;;;;5028629;28;20181;-78
2023/01/19 10:49:28;;;;;;;11.80;6.30;;;1.60;75.20;;;;;;5025819;28;20211;-78
2023/01/19 10:51:56;;;;;;;17.17;7.20;;;1.60;74.80;;;;;;5031753;28;20420;-77
2023/01/19 10:54:22;;;;;;;13.20;7.10;;;1.50;75.10;;;;;;5031858;28;20224;-77
2023/01/19 10:56:55;;;;;;;13.07;6.15;;;1.40;75.40;;;;;;5028244;28;20177;-78
2023/01/19 10:59:47;;;;;;;11.82;6.80;;;1.40;75.70;;;;;;5028874;28;20723;-78
2023/01/19 11:02:16;;;;;;;13.80;6.20;;;1.50;75.70;;;;;;5032894;28;20590;-77
2023/01/19 11:04:43;;;;;;;10.48;6.68;;;1.40;75.50;;;;;;5028867;28;20207;-76
2023/01/19 11:07:23;;;;;;;15.13;6.53;;;1.40;75.50;;;;;;5033766;28;20185;-78
2023/01/19 11:09:51;;;;;;;12.35;6.65;;;1.30;75.80;;;;;;5033356;28;20259;-76
2023/01/19 11:12:22;;;;;;;12.65;6.90;;;1.40;76.10;;;;;;5028403;28;20189;-78
2023/01/19 11:14:49;;;;;;;11.70;6.32;;;1.40;75.80;;;;;;5028304;28;20661;-77
2023/01/19 11:17:24;;;;;;;11.63;5.60;;;1.40;75.80;;;;;;5028991;28;20181;-77
2023/01/19 11:20:00;;;;;;;8.63;5.70;;;1.50;75.80;;;;;;5029395;28;20305;-77
2023/01/19 11:22:30;;;;;;;12.98;6.72;;;1.60;75.40;;;;;;5029816;28;20297;-78
2023/01/19 11:25:04;;;;;;;9.88;5.10;;;1.60;75.40;;;;;;5029760;28;20209;-78
2023/01/19 11:27:33;;;;;;;10.32;5.78;;;1.70;75.10;;;;;;5030139;28;20260;-78
2023/01/19 11:30:16;;;;;;;9.82;5.35;;;1.80;74.90;;;;;;5033746;28;20521;-78
2023/01/19 11:32:42;;;;;;;14.52;6.60;;;1.80;74.80;;;;;;5030971;28;20274;-76
2023/01/19 11:35:39;;;;;;;10.53;6.20;;;1.80;74.90;;;;;;5032270;28;20173;-78
2023/01/19 11:38:11;;;;;;;12.23;6.68;;;1.70;74.90;;;;;;5030696;28;20197;-78
2023/01/19 11:40:38;;;;;;;10.30;5.97;;;1.80;75.10;;;;;;5035420;28;20186;-77
2023/01/19 11:43:04;;;;;;;11.27;6.47;;;1.90;74.90;;;;;;5033278;28;20189;-78
2023/01/19 11:45:32;;;;;;;13.43;5.63;;;2.00;74.50;;;;;;5036770;28;20268;-79
2023/01/19 11:48:03;;;;;;;13.30;6.05;;;2.00;74.80;;;;;;5026826;28;20257;-78
2023/01/19 11:50:43;;;;;;;13.18;5.80;;;2.00;74.50;;;;;;5039461;28;20188;-78
2023/01/19 11:53:24;;;;;;;10.13;6.78;;;2.00;74.80;;;;;;5030414;28;20730;-78
2023/01/19 11:56:03;;;;;;;11.50;5.22;;;2.00;74.90;;;;;;5036823;28;20650;-77
2023/01/19 11:58:30;;;;;;;10.63;6.03;;;2.00;74.80;;;;;;5030139;28;20687;-78
2023/01/19 12:00:59;;;;;;;8.27;5.43;;;2.10;74.50;;;;;;5037612;28;20188;-78
2023/01/19 12:03:37;;;;;;;7.30;4.95;;;2.20;74.20;;;;;;5035274;28;20196;-78
2023/01/19 12:06:08;;;;;;;10.73;5.70;;;2.20;74.20;;;;;;5032424;28;20189;-78
2023/01/19 12:08:38;;;;;;;10.80;6.38;;;2.20;74.20;;;;;;5029864;28;20370;-77
2023/01/19 12:11:07;;;;;;;16.15;6.70;;;2.20;74.30;;;;;;5033994;28;20181;-79
2023/01/19 12:13:35;;;;;;;11.48;7.07;;;2.20;74.30;;;;;;5030694;28;20280;-77
2023/01/19 12:16:22;;;;;;;11.25;6.00;;;2.20;74.60;;;;;;5036321;28;20499;-78
2023/01/19 12:18:54;;;;;;;14.23;6.43;;;2.20;74.60;;;;;;5026049;28;20268;-77
2023/01/19 12:21:20;;;;;;;11.13;6.80;;;2.10;75.10;;;;;;5030462;28;20185;-78
2023/01/19 12:23:51;;;;;;;12.05;5.90;;;2.20;75.10;;;;;;5035709;28;20181;-78
2023/01/19 12:26:36;;;;;;;9.85;5.05;;;2.20;74.80;;;;;;5035214;28;20223;-77
2023/01/19 12:29:14;;;;;;;12.15;6.10;;;2.10;74.50;;;;;;5032692;28;20613;-76
2023/01/19 12:31:41;;;;;;;9.88;5.38;;;2.10;74.80;;;;;;5031539;28;20238;-76
2023/01/19 12:34:23;;;;;;;14.50;5.90;;;2.10;75.10;;;;;;5036446;28;20173;-77
2023/01/19 12:36:49;;;;;;;10.95;5.95;;;2.20;75.10;;;;;;5025733;28;20182;-76
2023/01/19 12:39:19;;;;;;;11.38;5.75;;;2.20;74.80;;;;;;5034547;28;20248;-76
2023/01/19 12:41:46;;;;;;;11.48;5.43;;;2.20;74.80;;;;;;5025830;28;20185;-78
2023/01/19 12:44:12;;;;;;;10.85;5.30;;;2.20;74.30;;;;;;5039169;28;20637;-79
2023/01/19 12:46:48;;;;;;;10.68;6.18;;;2.20;74.60;;;;;;5037103;28;20201;-78
2023/01/19 12:49:52;;;;;;;10.30;5.82;;;2.20;74.50;;;;;;5035847;28;20236;-78
2023/01/19 12:52:32;;;;;;;11.65;6.57;;;2.10;74.80;;;;;;5013638;28;20697;-77
2023/01/19 12:55:13;;;;;;;8.68;5.63;;;2.10;75.20;;;;;;5006092;28;20381;-78